Time;durP1;ratioP1;P1;durP2;ratioP2;P2;SDS_P1;SDS_P2;PMS_P1;PMS_P2;Temp;Humidity;BMP_temperature;BMP_pressure;BME280_temperature;BME280_humidity;BME280_pressure;Samples;Min_cycle;Max_cycle;Signal;HPM_P1;HPM_P2
2021/07/27 00:00:12;;;;;;;3.80;3.43;;;;;;;;;;4985365;28;20240;-55
2021/07/27 00:02:37;;;;;;;3.30;2.85;;;;;;;;;;4958437;28;20436;-54
2021/07/27 00:05:03;;;;;;;5.28;3.25;;;;;;;;;;4973438;28;20555;-55
2021/07/27 00:07:28;;;;;;;2.97;2.72;;;;;;;;;;4962469;28;20251;-54
2021/07/27 00:09:53;;;;;;;3.37;3.07;;;;;;;;;;4970706;28;20193;-54
2021/07/27 00:12:18;;;;;;;3.40;3.10;;;;;;;;;;4966660;28;20486;-55
2021/07/27 00:14:43;;;;;;;4.03;2.90;;;;;;;;;;4970731;28;20430;-56
2021/07/27 00:17:08;;;;;;;9.07;3.38;;;;;;;;;;4968544;28;20212;-55
2021/07/27 00:19:34;;;;;;;3.85;3.08;;;;;;;;;;4956140;28;20834;-55
2021/07/27 00:21:59;;;;;;;5.40;3.50;;;;;;;;;;4980893;28;20204;-55
2021/07/27 00:24:26;;;;;;;3.60;3.30;;;;;;;;;;4960211;28;20499;-55
2021/07/27 00:26:54;;;;;;;3.15;2.85;;;;;;;;;;4974854;28;20196;-55
2021/07/27 00:29:19;;;;;;;4.10;3.22;;;;;;;;;;4972433;28;20212;-56
2021/07/27 00:31:44;;;;;;;4.53;3.30;;;;;;;;;;4972219;28;20243;-55
2021/07/27 00:34:09;;;;;;;5.05;3.22;;;;;;;;;;4957149;28;20440;-55
2021/07/27 00:36:35;;;;;;;6.25;3.47;;;;;;;;;;4969973;28;20999;-55
2021/07/27 00:39:00;;;;;;;7.18;3.38;;;;;;;;;;4979005;28;20207;-55
2021/07/27 00:41:25;;;;;;;3.58;3.28;;;;;;;;;;4958539;28;20211;-55
2021/07/27 00:43:51;;;;;;;5.70;4.33;;;;;;;;;;4971692;28;20200;-55
2021/07/27 00:46:16;;;;;;;4.57;3.40;;;;;;;;;;4987118;28;20485;-55
2021/07/27 00:48:41;;;;;;;4.85;3.75;;;;;;;;;;4972147;28;20218;-55
2021/07/27 00:51:06;;;;;;;4.68;3.50;;;;;;;;;;4969818;28;20195;-55
2021/07/27 00:53:33;;;;;;;3.15;2.85;;;;;;;;;;4981752;28;20198;-54
2021/07/27 00:55:59;;;;;;;3.92;3.30;;;;;;;;;;4980137;28;20208;-55
2021/07/27 00:58:24;;;;;;;4.57;3.55;;;;;;;;;;4970477;28;20925;-55
2021/07/27 01:00:50;;;;;;;4.03;3.63;;;;;;;;;;4988128;28;20275;-55
2021/07/27 01:03:15;;;;;;;6.03;3.50;;;;;;;;;;4970827;28;20180;-54
2021/07/27 01:05:40;;;;;;;3.42;3.13;;;;;;;;;;4969536;28;20675;-55
2021/07/27 01:08:06;;;;;;;3.47;3.15;;;;;;;;;;4980118;28;20190;-55
2021/07/27 01:10:31;;;;;;;5.38;3.20;;;;;;;;;;4962086;28;20173;-55
2021/07/27 01:12:56;;;;;;;4.50;3.20;;;;;;;;;;4973065;28;20235;-54
2021/07/27 01:15:23;;;;;;;6.65;3.80;;;;;;;;;;4971180;28;20973;-53
2021/07/27 01:17:48;;;;;;;4.57;3.20;;;;;;;;;;4990523;28;20802;-54
2021/07/27 01:39:22;;;;;;;5.13;3.45;;;;;;;;;;4972141;28;20888;-55
2021/07/27 01:44:32;;;;;;;3.95;3.50;;;;;;;;;;4971607;28;20737;-54
2021/07/27 01:46:58;;;;;;;5.53;3.83;;;;;;;;;;4975501;28;20701;-54
2021/07/27 01:49:23;;;;;;;5.30;3.90;;;;;;;;;;4972145;28;20252;-55
2021/07/27 01:51:48;;;;;;;3.97;3.20;;;;;;;;;;4977235;28;20255;-55
2021/07/27 01:54:16;;;;;;;3.67;3.38;;;;;;;;;;4978002;28;20217;-55
2021/07/27 01:56:42;;;;;;;4.40;3.33;;;;;;;;;;4978372;28;20236;-55
2021/07/27 01:59:08;;;;;;;4.85;3.42;;;;;;;;;;4980626;28;20211;-55
2021/07/27 02:01:33;;;;;;;5.88;3.15;;;;;;;;;;4976801;28;20623;-55
2021/07/27 02:03:58;;;;;;;3.75;3.40;;;;;;;;;;4971120;28;20180;-54
2021/07/27 02:06:23;;;;;;;4.20;3.40;;;;;;;;;;4962684;28;20203;-54
2021/07/27 02:08:49;;;;;;;4.20;3.45;;;;;;;;;;4974962;28;20432;-55
2021/07/27 02:11:17;;;;;;;3.58;3.15;;;;;;;;;;4972841;28;20239;-55
2021/07/27 02:13:48;;;;;;;5.07;3.50;;;;;;;;;;4974689;28;20188;-55
2021/07/27 02:16:13;;;;;;;7.03;3.47;;;;;;;;;;4972745;28;20299;-55
2021/07/27 02:18:38;;;;;;;4.72;4.00;;;;;;;;;;4974984;28;20311;-54
2021/07/27 02:21:03;;;;;;;5.75;3.80;;;;;;;;;;4970074;28;20200;-56
2021/07/27 02:23:29;;;;;;;6.30;3.70;;;;;;;;;;4965698;28;20184;-56
2021/07/27 02:25:54;;;;;;;5.65;4.28;;;;;;;;;;4974995;28;20467;-55
2021/07/27 02:28:20;;;;;;;6.15;3.50;;;;;;;;;;4978611;28;20800;-55
2021/07/27 02:30:55;;;;;;;5.47;4.35;;;;;;;;;;4969224;28;20177;-55
2021/07/27 02:33:21;;;;;;;6.43;3.60;;;;;;;;;;4955450;28;20183;-55
2021/07/27 02:35:46;;;;;;;7.50;3.63;;;;;;;;;;4948020;28;20189;-55
2021/07/27 02:38:11;;;;;;;3.60;3.30;;;;;;;;;;4970388;28;20181;-55
2021/07/27 02:40:36;;;;;;;6.75;3.80;;;;;;;;;;4970895;28;20195;-55
2021/07/27 02:43:03;;;;;;;3.95;2.90;;;;;;;;;;4970881;28;20193;-55
2021/07/27 02:45:29;;;;;;;10.57;3.72;;;;;;;;;;4971901;28;20274;-55
2021/07/27 02:47:54;;;;;;;4.05;3.47;;;;;;;;;;4974306;28;20244;-54
2021/07/27 02:50:19;;;;;;;3.95;3.35;;;;;;;;;;4967028;28;20193;-56
2021/07/27 02:52:45;;;;;;;3.08;2.88;;;;;;;;;;4970049;28;20657;-55
2021/07/27 02:55:10;;;;;;;3.70;3.40;;;;;;;;;;4952081;28;20184;-55
2021/07/27 02:57:35;;;;;;;3.58;3.20;;;;;;;;;;4972460;28;20708;-54
2021/07/27 03:00:01;;;;;;;4.27;3.60;;;;;;;;;;4979218;28;20209;-54
2021/07/27 03:02:28;;;;;;;3.47;3.17;;;;;;;;;;4968517;28;20439;-55
2021/07/27 03:04:53;;;;;;;4.38;3.10;;;;;;;;;;4972518;28;20184;-55
2021/07/27 03:07:20;;;;;;;4.57;3.30;;;;;;;;;;4969563;28;20205;-55
2021/07/27 03:10:17;;;;;;;3.28;2.97;;;;;;;;;;4970895;28;20181;-55
2021/07/27 03:12:30;;;;;;;5.43;3.10;;;;;;;;;;4967934;28;20299;-55
2021/07/27 03:14:59;;;;;;;4.13;3.30;;;;;;;;;;4954384;28;20717;-55
2021/07/27 03:17:25;;;;;;;3.75;3.00;;;;;;;;;;4969615;28;20694;-55
2021/07/27 03:19:50;;;;;;;5.43;3.28;;;;;;;;;;4961718;28;20216;-55
2021/07/27 03:22:15;;;;;;;3.67;3.15;;;;;;;;;;4952714;28;20191;-54
2021/07/27 03:24:40;;;;;;;3.03;2.63;;;;;;;;;;4970943;28;20184;-55
2021/07/27 03:27:05;;;;;;;5.30;2.92;;;;;;;;;;4966346;28;20551;-55
2021/07/27 03:29:31;;;;;;;3.72;3.35;;;;;;;;;;4972966;28;20184;-55
2021/07/27 03:31:58;;;;;;;6.27;3.40;;;;;;;;;;4956451;28;20188;-55
2021/07/27 03:34:23;;;;;;;5.82;3.08;;;;;;;;;;4984318;28;20426;-55
2021/07/27 03:36:48;;;;;;;3.88;3.50;;;;;;;;;;4973461;28;20201;-55
2021/07/27 03:39:14;;;;;;;6.95;3.20;;;;;;;;;;4969784;28;20239;-55
2021/07/27 03:41:39;;;;;;;3.55;3.25;;;;;;;;;;4976225;28;20661;-56
2021/07/27 03:44:04;;;;;;;3.65;3.28;;;;;;;;;;4971486;28;20199;-55
2021/07/27 03:46:31;;;;;;;4.30;2.97;;;;;;;;;;4975030;28;20200;-55
2021/07/27 03:48:57;;;;;;;4.80;3.40;;;;;;;;;;4972863;28;20215;-55
2021/07/27 03:51:22;;;;;;;4.43;2.95;;;;;;;;;;4966214;28;20193;-55
2021/07/27 03:53:47;;;;;;;4.30;3.00;;;;;;;;;;4952269;28;20189;-55
2021/07/27 03:56:12;;;;;;;3.90;3.33;;;;;;;;;;4973457;28;20451;-56
2021/07/27 03:58:37;;;;;;;3.17;2.90;;;;;;;;;;4979486;28;20223;-55
2021/07/27 04:01:06;;;;;;;5.38;3.33;;;;;;;;;;4970910;28;20675;-55
2021/07/27 04:03:31;;;;;;;5.60;3.20;;;;;;;;;;4976650;28;20184;-55
2021/07/27 04:05:56;;;;;;;4.80;2.97;;;;;;;;;;4974142;28;20304;-55
2021/07/27 04:08:21;;;;;;;3.90;3.20;;;;;;;;;;4978617;28;20184;-55
2021/07/27 04:10:46;;;;;;;3.47;3.17;;;;;;;;;;4981170;28;20223;-55
2021/07/27 04:13:12;;;;;;;4.30;3.13;;;;;;;;;;4973542;28;20404;-55
2021/07/27 04:15:37;;;;;;;5.03;3.33;;;;;;;;;;4973924;28;20567;-55
2021/07/27 04:18:02;;;;;;;4.50;3.33;;;;;;;;;;4959941;28;20555;-55
2021/07/27 04:20:27;;;;;;;4.03;3.50;;;;;;;;;;4983613;28;20931;-55
2021/07/27 04:22:52;;;;;;;5.35;3.10;;;;;;;;;;4976940;28;20644;-55
2021/07/27 04:25:17;;;;;;;5.18;3.20;;;;;;;;;;4966744;28;20180;-55
2021/07/27 04:27:43;;;;;;;3.20;2.90;;;;;;;;;;4978419;28;23747;-55
2021/07/27 04:30:08;;;;;;;4.07;3.10;;;;;;;;;;4970711;28;20342;-55
2021/07/27 04:32:33;;;;;;;3.70;3.10;;;;;;;;;;4972927;28;20193;-55
2021/07/27 04:34:58;;;;;;;4.78;3.38;;;;;;;;;;4976003;28;20184;-55
2021/07/27 04:37:24;;;;;;;5.13;3.03;;;;;;;;;;4972485;28;20251;-55
2021/07/27 04:39:52;;;;;;;9.27;3.58;;;;;;;;;;4956802;28;20890;-55
2021/07/27 04:42:17;;;;;;;4.75;2.80;;;;;;;;;;4966119;28;20189;-55
2021/07/27 04:44:42;;;;;;;3.55;3.25;;;;;;;;;;4977367;28;20181;-55
2021/07/27 04:47:08;;;;;;;3.47;3.17;;;;;;;;;;4958683;28;20197;-55
2021/07/27 04:49:33;;;;;;;3.97;3.00;;;;;;;;;;4971401;28;20224;-55
2021/07/27 04:51:58;;;;;;;3.35;2.67;;;;;;;;;;4948384;28;20586;-55
2021/07/27 04:54:40;;;;;;;3.83;3.20;;;;;;;;;;4970875;28;20251;-55
2021/07/27 04:57:06;;;;;;;4.10;3.13;;;;;;;;;;4955057;28;20217;-55
2021/07/27 04:59:32;;;;;;;4.22;3.38;;;;;;;;;;4979678;28;20204;-55
2021/07/27 05:01:57;;;;;;;3.95;3.13;;;;;;;;;;4970619;28;20260;-55
2021/07/27 05:04:26;;;;;;;3.45;3.15;;;;;;;;;;4970462;28;20189;-55
2021/07/27 05:06:51;;;;;;;3.83;2.85;;;;;;;;;;4970377;28;20209;-55
2021/07/27 05:09:16;;;;;;;5.97;3.07;;;;;;;;;;4973433;28;20184;-56
2021/07/27 05:11:41;;;;;;;3.77;3.10;;;;;;;;;;4953514;28;20517;-55
2021/07/27 05:14:07;;;;;;;4.17;3.20;;;;;;;;;;4956319;28;20819;-55
2021/07/27 05:16:32;;;;;;;4.57;3.17;;;;;;;;;;4979403;28;20455;-55
2021/07/27 05:19:01;;;;;;;3.25;2.95;;;;;;;;;;4974303;28;20266;-55
2021/07/27 05:21:26;;;;;;;5.30;3.30;;;;;;;;;;4977391;28;20193;-55
2021/07/27 05:23:51;;;;;;;3.73;3.37;;;;;;;;;;4971375;28;20231;-55
2021/07/27 05:26:16;;;;;;;4.57;3.13;;;;;;;;;;4960709;28;20979;-55
2021/07/27 05:28:41;;;;;;;3.10;2.80;;;;;;;;;;4980362;28;20191;-55
2021/07/27 05:31:07;;;;;;;4.07;2.93;;;;;;;;;;4987004;28;20198;-55
2021/07/27 05:33:32;;;;;;;4.95;3.05;;;;;;;;;;4983835;28;20438;-55
2021/07/27 05:35:57;;;;;;;3.53;3.22;;;;;;;;;;4978583;28;20203;-55
2021/07/27 05:38:22;;;;;;;3.05;2.75;;;;;;;;;;4979460;28;20188;-55
2021/07/27 05:40:51;;;;;;;5.70;3.03;;;;;;;;;;4985057;28;20180;-54
2021/07/27 05:43:16;;;;;;;3.70;3.22;;;;;;;;;;4962308;28;20419;-55
2021/07/27 05:45:41;;;;;;;3.75;3.05;;;;;;;;;;4980165;28;20582;-55
2021/07/27 05:48:06;;;;;;;3.20;2.72;;;;;;;;;;4986624;28;20306;-54
2021/07/27 05:50:32;;;;;;;3.33;3.03;;;;;;;;;;4958419;28;20431;-54
2021/07/27 05:52:57;;;;;;;3.50;3.20;;;;;;;;;;4975200;28;20469;-55
2021/07/27 05:55:22;;;;;;;4.20;2.97;;;;;;;;;;4970624;28;20185;-54
2021/07/27 05:57:48;;;;;;;7.40;3.40;;;;;;;;;;4980420;28;20207;-55
2021/07/27 06:00:13;;;;;;;3.63;3.10;;;;;;;;;;4978769;28;20667;-55
2021/07/27 06:02:38;;;;;;;2.75;2.55;;;;;;;;;;4972689;28;20426;-55
2021/07/27 06:05:03;;;;;;;2.90;2.70;;;;;;;;;;4961907;28;20699;-55
2021/07/27 06:07:31;;;;;;;3.50;2.92;;;;;;;;;;4963252;28;20459;-55
2021/07/27 06:09:56;;;;;;;3.22;2.92;;;;;;;;;;4963322;28;20181;-55
2021/07/27 06:12:21;;;;;;;4.07;3.10;;;;;;;;;;4971173;28;20177;-55
2021/07/27 06:14:47;;;;;;;5.13;3.30;;;;;;;;;;4974141;28;20427;-56
2021/07/27 06:17:12;;;;;;;4.35;3.05;;;;;;;;;;4971490;28;20227;-55
2021/07/27 06:19:37;;;;;;;5.18;3.10;;;;;;;;;;4970294;28;20235;-55
2021/07/27 06:22:03;;;;;;;5.72;3.17;;;;;;;;;;4976979;28;20359;-55
2021/07/27 06:24:28;;;;;;;6.65;3.42;;;;;;;;;;4964937;28;20599;-54
2021/07/27 06:26:53;;;;;;;5.25;3.28;;;;;;;;;;4978195;28;20242;-55
2021/07/27 06:29:18;;;;;;;8.95;3.00;;;;;;;;;;4981056;28;20203;-56
2021/07/27 06:31:44;;;;;;;3.22;3.03;;;;;;;;;;4975263;28;20228;-55
2021/07/27 06:34:09;;;;;;;3.35;3.00;;;;;;;;;;4958744;28;20280;-56
2021/07/27 06:36:34;;;;;;;5.32;3.22;;;;;;;;;;4953301;28;20224;-55
2021/07/27 06:38:59;;;;;;;4.40;3.15;;;;;;;;;;4971029;28;20717;-56
2021/07/27 06:41:24;;;;;;;5.05;3.45;;;;;;;;;;4974178;28;20204;-55
2021/07/27 06:43:50;;;;;;;6.07;3.40;;;;;;;;;;4980354;28;20996;-55
2021/07/27 06:46:15;;;;;;;3.60;3.00;;;;;;;;;;4974112;28;20283;-55
2021/07/27 06:48:40;;;;;;;3.90;2.88;;;;;;;;;;4980917;28;20192;-54
2021/07/27 06:51:09;;;;;;;4.07;3.30;;;;;;;;;;4950443;28;20836;-55
2021/07/27 06:53:34;;;;;;;3.42;3.00;;;;;;;;;;4969576;28;20199;-55
2021/07/27 06:55:59;;;;;;;3.97;3.00;;;;;;;;;;4967669;28;20204;-55
2021/07/27 06:58:24;;;;;;;5.82;3.15;;;;;;;;;;4977401;23;20328;-78
2021/07/27 07:00:49;;;;;;;5.15;3.25;;;;;;;;;;4965349;28;20238;-80
2021/07/27 07:03:15;;;;;;;3.45;3.15;;;;;;;;;;4949150;28;20211;-80
2021/07/27 07:05:42;;;;;;;4.03;3.28;;;;;;;;;;4970073;28;20432;-77
2021/07/27 07:08:07;;;;;;;3.83;3.30;;;;;;;;;;4965815;28;20192;-78
2021/07/27 07:10:32;;;;;;;4.75;3.20;;;;;;;;;;4964522;28;20292;-80
2021/07/27 07:12:57;;;;;;;4.30;3.00;;;;;;;;;;4965606;28;20281;-77
2021/07/27 07:15:23;;;;;;;5.37;3.23;;;;;;;;;;4967285;28;20652;-80
2021/07/27 07:17:48;;;;;;;3.70;3.10;;;;;;;;;;4961075;28;20439;-79
2021/07/27 07:20:15;;;;;;;6.53;3.25;;;;;;;;;;4977237;28;20300;-79
2021/07/27 07:22:40;;;;;;;4.18;3.50;;;;;;;;;;4965151;28;20784;-77
2021/07/27 07:25:06;;;;;;;3.45;3.15;;;;;;;;;;4963168;28;20212;-80
2021/07/27 07:27:31;;;;;;;3.10;2.80;;;;;;;;;;4966625;28;20564;-78
2021/07/27 07:29:59;;;;;;;3.50;3.20;;;;;;;;;;4973130;28;20552;-79
2021/07/27 07:32:25;;;;;;;4.78;3.17;;;;;;;;;;4963770;28;20725;-79
2021/07/27 07:34:50;;;;;;;3.35;3.05;;;;;;;;;;4967923;28;20268;-80
2021/07/27 07:37:15;;;;;;;3.20;2.90;;;;;;;;;;4967193;28;20193;-80
2021/07/27 07:39:40;;;;;;;5.28;3.50;;;;;;;;;;4957444;28;20240;-80
2021/07/27 07:42:06;;;;;;;3.80;3.40;;;;;;;;;;4963896;28;20645;-79
2021/07/27 07:44:32;;;;;;;3.95;3.65;;;;;;;;;;4967135;28;20653;-80
2021/07/27 07:46:57;;;;;;;4.03;3.63;;;;;;;;;;4965624;28;20275;-79
2021/07/27 07:49:22;;;;;;;4.25;3.85;;;;;;;;;;4963454;28;20240;-80
2021/07/27 07:51:49;;;;;;;4.35;3.55;;;;;;;;;;4960481;28;20223;-80
2021/07/27 07:54:14;;;;;;;4.30;3.78;;;;;;;;;;4963227;28;20192;-79
2021/07/27 07:56:41;;;;;;;6.03;4.27;;;;;;;;;;4964009;28;20192;-79
2021/07/27 07:59:06;;;;;;;4.30;4.00;;;;;;;;;;4965500;28;20321;-80
2021/07/27 08:01:31;;;;;;;4.93;3.90;;;;;;;;;;4963710;28;20180;-80
2021/07/27 08:03:56;;;;;;;4.50;4.10;;;;;;;;;;4961037;28;20172;-78
2021/07/27 08:06:22;;;;;;;4.97;4.10;;;;;;;;;;4966252;28;20683;-78
2021/07/27 08:08:47;;;;;;;4.60;4.30;;;;;;;;;;4966245;28;20211;-80
2021/07/27 08:11:12;;;;;;;4.73;4.30;;;;;;;;;;4964709;28;20184;-79
2021/07/27 08:13:38;;;;;;;5.95;4.55;;;;;;;;;;4962164;28;20454;-79
2021/07/27 08:16:07;;;;;;;4.32;4.03;;;;;;;;;;4962513;28;20254;-78
2021/07/27 08:18:32;;;;;;;4.50;4.10;;;;;;;;;;4956945;28;20707;-78
2021/07/27 08:20:57;;;;;;;5.27;4.33;;;;;;;;;;4965870;28;20279;-79
2021/07/27 08:23:22;;;;;;;4.93;4.43;;;;;;;;;;4968329;28;20184;-78
2021/07/27 08:25:47;;;;;;;5.10;4.60;;;;;;;;;;4957212;28;20181;-78
2021/07/27 08:28:13;;;;;;;4.20;3.90;;;;;;;;;;4946961;28;20215;-78
2021/07/27 08:30:38;;;;;;;5.50;5.00;;;;;;;;;;4964596;28;20200;-79
2021/07/27 08:33:03;;;;;;;4.20;3.80;;;;;;;;;;4966395;28;20260;-78
2021/07/27 08:35:28;;;;;;;4.97;4.57;;;;;;;;;;4961015;28;20526;-78
2021/07/27 08:37:53;;;;;;;4.53;4.13;;;;;;;;;;4958987;28;20192;-77
2021/07/27 08:40:21;;;;;;;4.33;4.03;;;;;;;;;;4962370;28;20473;-76
2021/07/27 08:42:47;;;;;;;4.10;3.75;;;;;;;;;;4967013;28;20482;-78
2021/07/27 08:45:12;;;;;;;5.07;4.57;;;;;;;;;;4966234;28;20181;-78
2021/07/27 08:47:43;;;;;;;5.72;3.67;;;;;;;;;;4968502;28;20192;-77
2021/07/27 08:50:09;;;;;;;4.32;3.65;;;;;;;;;;4969569;28;20205;-79
2021/07/27 08:52:34;;;;;;;4.28;3.88;;;;;;;;;;4964670;28;20215;-77
2021/07/27 08:54:59;;;;;;;5.05;4.28;;;;;;;;;;4965304;28;20192;-78
2021/07/27 08:57:25;;;;;;;4.35;3.95;;;;;;;;;;4969823;28;20200;-78
2021/07/27 08:59:51;;;;;;;5.60;4.10;;;;;;;;;;4960682;28;20226;-74
2021/07/27 09:02:25;;;;;;;4.22;3.90;;;;;;;;;;4962290;28;20564;-75
2021/07/27 09:04:51;;;;;;;3.88;3.53;;;;;;;;;;4949276;28;20189;-76
2021/07/27 09:07:23;;;;;;;4.43;3.70;;;;;;;;;;4958285;28;20651;-73
2021/07/27 09:09:48;;;;;;;4.65;3.92;;;;;;;;;;4944667;28;20654;-75
2021/07/27 09:12:18;;;;;;;4.20;3.85;;;;;;;;;;4964278;28;20208;-75
2021/07/27 09:14:44;;;;;;;5.10;3.90;;;;;;;;;;4975111;28;20223;-75
2021/07/27 09:17:09;;;;;;;4.90;4.40;;;;;;;;;;4963556;28;20208;-74
2021/07/27 09:19:38;;;;;;;6.72;4.57;;;;;;;;;;4960827;28;20700;-75
2021/07/27 09:22:04;;;;;;;5.38;4.55;;;;;;;;;;4971047;28;20173;-75
2021/07/27 09:24:30;;;;;;;4.65;4.07;;;;;;;;;;4953963;28;20711;-75
2021/07/27 09:26:59;;;;;;;4.47;3.60;;;;;;;;;;4967629;28;20185;-75
2021/07/27 09:29:27;;;;;;;4.88;4.20;;;;;;;;;;4965976;28;20283;-76
2021/07/27 09:31:53;;;;;;;4.82;3.83;;;;;;;;;;4964917;28;20197;-74
2021/07/27 09:34:18;;;;;;;4.78;4.38;;;;;;;;;;4967689;28;20181;-75
2021/07/27 09:36:44;;;;;;;4.72;4.32;;;;;;;;;;4972414;28;20192;-75
2021/07/27 09:39:09;;;;;;;7.10;5.00;;;;;;;;;;4971419;28;20217;-75
2021/07/27 09:41:34;;;;;;;4.22;3.83;;;;;;;;;;4968279;28;20177;-74
2021/07/27 09:44:00;;;;;;;5.00;4.38;;;;;;;;;;4963476;28;20588;-74
2021/07/27 09:46:25;;;;;;;4.30;4.00;;;;;;;;;;4966738;28;20184;-75
2021/07/27 09:48:51;;;;;;;4.40;4.00;;;;;;;;;;4960822;28;20197;-75
2021/07/27 09:51:16;;;;;;;5.13;4.63;;;;;;;;;;4977616;28;20607;-75
2021/07/27 09:53:43;;;;;;;8.05;4.47;;;;;;;;;;4959333;28;20260;-75
2021/07/27 09:56:08;;;;;;;4.68;4.28;;;;;;;;;;4968326;28;20181;-74
2021/07/27 09:58:33;;;;;;;5.03;4.60;;;;;;;;;;4971185;28;20586;-76
2021/07/27 10:01:05;;;;;;;8.07;4.90;;;;;;;;;;4966643;28;20241;-77
2021/07/27 10:03:34;;;;;;;5.18;4.68;;;;;;;;;;4962553;28;20433;-76
2021/07/27 10:06:01;;;;;;;5.15;4.75;;;;;;;;;;4961572;28;20635;-76
2021/07/27 10:08:30;;;;;;;5.72;5.22;;;;;;;;;;4962625;28;20189;-76
2021/07/27 10:11:11;;;;;;;6.68;4.35;;;;;;;;;;4971552;28;20258;-75
2021/07/27 10:13:38;;;;;;;4.50;4.10;;;;;;;;;;4962688;28;20189;-76
2021/07/27 10:16:03;;;;;;;4.90;4.50;;;;;;;;;;4965343;28;20260;-76
2021/07/27 10:18:30;;;;;;;4.32;3.88;;;;;;;;;;4964287;28;20700;-80
2021/07/27 10:21:14;;;;;;;4.47;4.10;;;;;;;;;;4960946;28;20216;-80
2021/07/27 10:23:39;;;;;;;4.82;4.43;;;;;;;;;;4957855;28;20182;-80
2021/07/27 10:26:05;;;;;;;4.28;3.95;;;;;;;;;;4961402;28;20185;-76
2021/07/27 10:28:30;;;;;;;4.35;3.60;;;;;;;;;;4964007;28;20197;-75
2021/07/27 10:31:04;;;;;;;4.10;3.55;;;;;;;;;;4958896;28;20200;-76
2021/07/27 10:33:29;;;;;;;3.97;3.65;;;;;;;;;;4958876;28;20515;-81
2021/07/27 10:35:55;;;;;;;3.20;2.90;;;;;;;;;;4960447;28;20275;-79
2021/07/27 10:38:20;;;;;;;3.60;3.30;;;;;;;;;;4960813;28;20172;-79
2021/07/27 10:40:46;;;;;;;4.57;3.70;;;;;;;;;;4956879;28;20716;-79
2021/07/27 10:43:22;;;;;;;3.70;3.40;;;;;;;;;;4960023;28;20280;-80
2021/07/27 10:45:57;;;;;;;3.83;3.47;;;;;;;;;;4960963;28;20263;-79
2021/07/27 10:48:31;;;;;;;4.03;3.63;;;;;;;;;;4958273;28;20238;-79
2021/07/27 10:50:58;;;;;;;3.80;3.50;;;;;;;;;;4961025;28;20193;-77
2021/07/27 10:53:24;;;;;;;7.72;3.70;;;;;;;;;;4960499;28;20204;-81
2021/07/27 10:55:51;;;;;;;7.13;3.83;;;;;;;;;;4967235;28;20191;-79
2021/07/27 10:58:17;;;;;;;4.35;3.85;;;;;;;;;;4963691;28;20288;-80
2021/07/27 11:00:42;;;;;;;4.45;3.38;;;;;;;;;;4959252;28;20216;-79
2021/07/27 11:03:07;;;;;;;5.25;3.38;;;;;;;;;;4969719;28;20199;-80
2021/07/27 11:05:33;;;;;;;3.43;3.13;;;;;;;;;;4965151;28;20232;-79
2021/07/27 11:07:58;;;;;;;3.53;3.22;;;;;;;;;;4964999;28;20463;-74
2021/07/27 11:10:24;;;;;;;8.70;3.00;;;;;;;;;;4963854;28;20208;-76
2021/07/27 11:12:50;;;;;;;2.90;2.70;;;;;;;;;;4964279;28;20653;-73
2021/07/27 11:15:20;;;;;;;4.68;3.35;;;;;;;;;;4965153;28;20230;-78
2021/07/27 11:17:53;;;;;;;3.15;2.90;;;;;;;;;;4959190;28;20568;-77
2021/07/27 11:20:30;;;;;;;3.20;2.90;;;;;;;;;;4968450;28;20775;-77
2021/07/27 11:22:56;;;;;;;3.00;2.75;;;;;;;;;;4964412;28;20599;-77
2021/07/27 11:25:23;;;;;;;3.20;2.90;;;;;;;;;;4961556;28;21072;-78
2021/07/27 11:27:48;;;;;;;3.92;3.08;;;;;;;;;;4966353;28;20667;-77
2021/07/27 11:30:14;;;;;;;2.67;2.47;;;;;;;;;;4961888;28;20201;-77
2021/07/27 11:32:41;;;;;;;3.05;2.80;;;;;;;;;;4957002;28;20230;-76
2021/07/27 11:35:06;;;;;;;10.65;3.38;;;;;;;;;;4972146;28;20660;-74
2021/07/27 11:37:32;;;;;;;2.95;2.75;;;;;;;;;;4964470;28;20243;-74
2021/07/27 11:39:57;;;;;;;3.00;2.80;;;;;;;;;;4960105;28;20212;-75
2021/07/27 11:42:29;;;;;;;5.55;2.72;;;;;;;;;;4959879;28;20887;-74
2021/07/27 11:44:57;;;;;;;4.32;2.92;;;;;;;;;;4959341;28;20183;-74
2021/07/27 11:47:22;;;;;;;4.47;2.65;;;;;;;;;;4948448;28;20216;-74
2021/07/27 11:49:57;;;;;;;5.60;3.03;;;;;;;;;;4960061;28;20909;-74
2021/07/27 11:52:28;;;;;;;2.78;2.58;;;;;;;;;;4969682;28;20175;-75
2021/07/27 11:55:00;;;;;;;2.90;2.70;;;;;;;;;;4960088;28;20196;-76
2021/07/27 11:57:27;;;;;;;3.00;2.70;;;;;;;;;;4999089;23;20239;-55
2021/07/27 11:59:54;;;;;;;3.83;3.13;;;;;;;;;;5007430;28;20234;-55
2021/07/27 12:02:19;;;;;;;3.28;2.90;;;;;;;;;;5002172;28;20175;-55
2021/07/27 12:04:44;;;;;;;3.57;3.27;;;;;;;;;;5005298;28;20245;-55
2021/07/27 12:07:16;;;;;;;3.10;2.90;;;;;;;;;;5006497;28;20414;-55
2021/07/27 12:09:41;;;;;;;3.83;3.00;;;;;;;;;;5004052;28;20203;-55
2021/07/27 12:12:06;;;;;;;3.30;3.00;;;;;;;;;;4989371;28;20218;-55
2021/07/27 12:14:31;;;;;;;3.40;2.90;;;;;;;;;;5004895;28;20690;-55
2021/07/27 12:16:58;;;;;;;3.63;3.33;;;;;;;;;;5004209;28;20783;-55
2021/07/27 12:19:23;;;;;;;3.92;3.47;;;;;;;;;;5009519;28;20597;-56
2021/07/27 12:21:48;;;;;;;5.03;3.13;;;;;;;;;;5007681;28;20284;-56
2021/07/27 12:24:13;;;;;;;3.88;3.45;;;;;;;;;;5011531;28;20469;-55
2021/07/27 12:26:41;;;;;;;2.90;2.70;;;;;;;;;;5008726;28;20190;-56
2021/07/27 12:29:07;;;;;;;3.67;2.78;;;;;;;;;;5010632;28;20545;-55
2021/07/27 12:31:32;;;;;;;3.53;3.22;;;;;;;;;;5008237;28;20254;-55
2021/07/27 12:33:57;;;;;;;3.73;3.30;;;;;;;;;;5002185;28;20191;-55
2021/07/27 12:36:22;;;;;;;5.25;2.80;;;;;;;;;;5007834;28;20449;-54
2021/07/27 12:38:48;;;;;;;3.43;3.10;;;;;;;;;;5008228;28;20757;-55
2021/07/27 12:41:13;;;;;;;3.85;3.28;;;;;;;;;;5008455;28;20435;-55
2021/07/27 12:43:38;;;;;;;3.83;3.53;;;;;;;;;;5012987;28;20174;-55
2021/07/27 12:46:03;;;;;;;3.08;2.80;;;;;;;;;;5009950;28;20840;-55
2021/07/27 12:48:30;;;;;;;3.43;3.13;;;;;;;;;;5012163;28;20641;-55
2021/07/27 12:50:55;;;;;;;8.00;3.40;;;;;;;;;;5008203;28;20419;-55
2021/07/27 12:53:25;;;;;;;3.95;3.65;;;;;;;;;;5009670;28;20187;-55
2021/07/27 12:55:50;;;;;;;3.72;3.40;;;;;;;;;;5011584;28;20229;-55
2021/07/27 12:58:16;;;;;;;4.77;3.70;;;;;;;;;;5007337;28;20227;-55
2021/07/27 13:00:42;;;;;;;7.32;3.63;;;;;;;;;;5001563;23;20524;-55
2021/07/27 13:03:07;;;;;;;4.50;3.47;;;;;;;;;;5004323;28;20671;-55
2021/07/27 13:05:32;;;;;;;4.85;4.07;;;;;;;;;;5009743;28;20458;-55
2021/07/27 13:07:58;;;;;;;6.72;3.95;;;;;;;;;;5008753;28;20438;-55
2021/07/27 13:10:23;;;;;;;8.70;3.47;;;;;;;;;;5008371;28;20706;-55
2021/07/27 13:12:48;;;;;;;3.10;2.67;;;;;;;;;;4988903;28;20435;-55
2021/07/27 13:15:13;;;;;;;4.10;3.73;;;;;;;;;;4990647;28;20439;-55
2021/07/27 13:17:38;;;;;;;3.88;3.50;;;;;;;;;;4978653;28;20427;-55
2021/07/27 13:20:04;;;;;;;3.95;3.65;;;;;;;;;;4990307;28;20216;-55
2021/07/27 13:22:29;;;;;;;4.38;3.97;;;;;;;;;;4987909;28;20192;-54
2021/07/27 13:24:54;;;;;;;4.43;4.03;;;;;;;;;;4992578;28;20283;-55
2021/07/27 13:27:19;;;;;;;5.60;3.78;;;;;;;;;;4987678;28;20427;-54
2021/07/27 13:29:44;;;;;;;5.75;3.78;;;;;;;;;;4983844;28;20272;-55
2021/07/27 13:32:10;;;;;;;5.63;3.80;;;;;;;;;;4991742;28;20250;-55
2021/07/27 13:34:35;;;;;;;4.28;3.88;;;;;;;;;;4986888;28;20427;-55
2021/07/27 13:37:01;;;;;;;4.80;3.90;;;;;;;;;;4991618;28;20584;-55
2021/07/27 13:39:26;;;;;;;4.32;3.92;;;;;;;;;;4990396;28;20474;-55
2021/07/27 13:41:51;;;;;;;4.67;3.77;;;;;;;;;;4986903;28;20208;-55
2021/07/27 13:44:16;;;;;;;12.90;4.27;;;;;;;;;;4980706;28;21006;-55
2021/07/27 13:46:41;;;;;;;496.83;31.90;;;;;;;;;;4974186;28;20430;-55
2021/07/27 13:49:07;;;;;;;4.40;4.00;;;;;;;;;;5001446;28;20497;-54
2021/07/27 13:51:32;;;;;;;4.30;3.90;;;;;;;;;;4990441;28;20447;-55
2021/07/27 13:53:59;;;;;;;4.35;3.75;;;;;;;;;;4990401;28;20427;-55
2021/07/27 13:56:24;;;;;;;4.40;3.72;;;;;;;;;;4983881;28;20754;-55
2021/07/27 13:58:49;;;;;;;8.05;4.20;;;;;;;;;;4985467;28;20246;-55
2021/07/27 14:01:14;;;;;;;9.65;4.38;;;;;;;;;;4990215;28;20204;-55
2021/07/27 14:03:41;;;;;;;4.50;4.10;;;;;;;;;;4972609;28;20197;-55
2021/07/27 14:06:06;;;;;;;3.83;3.53;;;;;;;;;;5005060;28;20184;-55
2021/07/27 14:08:31;;;;;;;4.80;3.77;;;;;;;;;;4986646;28;20185;-55
2021/07/27 14:10:56;;;;;;;7.70;3.70;;;;;;;;;;4982545;28;20542;-55
2021/07/27 14:13:21;;;;;;;10.00;4.30;;;;;;;;;;4989546;28;20225;-55
2021/07/27 14:15:47;;;;;;;4.90;4.40;;;;;;;;;;4991366;28;21055;-55
2021/07/27 14:18:12;;;;;;;6.45;3.85;;;;;;;;;;4998307;28;20191;-55
2021/07/27 14:20:37;;;;;;;4.50;4.10;;;;;;;;;;4998250;28;20222;-55
2021/07/27 14:23:02;;;;;;;8.55;4.35;;;;;;;;;;4988213;28;20179;-55
2021/07/27 14:25:27;;;;;;;6.60;4.13;;;;;;;;;;4990286;28;20179;-55
2021/07/27 14:27:55;;;;;;;11.50;4.20;;;;;;;;;;4969641;28;20183;-55
2021/07/27 14:30:20;;;;;;;5.38;4.03;;;;;;;;;;4972937;28;20994;-55
2021/07/27 14:32:46;;;;;;;4.32;3.50;;;;;;;;;;4991428;28;20184;-54
2021/07/27 14:35:11;;;;;;;4.00;3.60;;;;;;;;;;4987326;28;20671;-55
2021/07/27 14:37:36;;;;;;;4.82;4.20;;;;;;;;;;4991408;28;20423;-55
2021/07/27 14:40:02;;;;;;;4.70;3.73;;;;;;;;;;4972340;28;20292;-55
2021/07/27 14:42:27;;;;;;;3.60;3.28;;;;;;;;;;4984372;28;20485;-56
2021/07/27 14:44:53;;;;;;;3.97;3.53;;;;;;;;;;4988906;28;20180;-55
2021/07/27 14:47:18;;;;;;;6.10;3.88;;;;;;;;;;4954504;28;20919;-55
2021/07/27 14:49:43;;;;;;;7.93;3.93;;;;;;;;;;4991756;28;20180;-55
2021/07/27 14:52:08;;;;;;;17.27;4.32;;;;;;;;;;4987477;28;20457;-55
2021/07/27 14:54:33;;;;;;;3.93;3.53;;;;;;;;;;4964654;28;20192;-55
2021/07/27 14:57:00;;;;;;;4.30;3.90;;;;;;;;;;4990490;28;20430;-55